CheckWX is a tool to help pilots better visualize weather data.  It is not intended as a substitute for an official pre-flight weather briefing.

18:40:42 UTC

KHIO METAR
Portland-Hillsboro Airport
Portland, Oregon, USA
Current

48 mins ago

KHIO 261753Z 00000KT 10SM CLR 10/04 A3008 RMK AO2 SLP188 T01000044 10100 20011 56004
Observed
Mar-26 @ 17:53 UTC
Visibility
10 SM
Flight Rules
VFR
Cloud Levels
  • Clear skies
Temperature
10°C / 50°F
Dewpoint
C / 39°F
Humidity
67%
Altimeter
30.08" Hg
Pressure
1018.8 hPa
Previous

2 hours ago

KHIO 261653Z 00000KT 10SM CLR 08/06 A3009 RMK AO2 SLP188 T00780056
Observed
Mar-26 @ 16:53 UTC
Visibility
10 SM
Flight Rules
VFR
Cloud Levels
  • Clear skies
Temperature
C / 46°F
Dewpoint
C / 43°F
Humidity
87%
Altimeter
30.09" Hg
Pressure
1018.8 hPa
Previous

3 hours ago

KHIO 261553Z 00000KT 10SM BCFG FEW002 06/05 A3009 RMK AO2 SLP191 T00610050
Observed
Mar-26 @ 15:53 UTC
Visibility
10 SM
Flight Rules
VFR
Conditions
Patches of Fog
Cloud Levels
  • Few at 200' AGL
Temperature
C / 43°F
Dewpoint
C / 41°F
Humidity
93%
Altimeter
30.09" Hg
Pressure
1019.1 hPa